sensor_id;sensor_type;location;lat;lon;timestamp;P1;durP1;ratioP1;P2;durP2;ratioP2
60308;SDS011;50313;52.894;6.492;2023-10-13T00:00:31;10.32;;;6.43;;
60308;SDS011;50313;52.894;6.492;2023-10-13T00:03:04;8.65;;;6.25;;
60308;SDS011;50313;52.894;6.492;2023-10-13T00:05:31;9.07;;;5.50;;
60308;SDS011;50313;52.894;6.492;2023-10-13T00:08:02;9.43;;;5.60;;
60308;SDS011;50313;52.894;6.492;2023-10-13T00:10:29;10.52;;;7.05;;
60308;SDS011;50313;52.894;6.492;2023-10-13T00:12:55;8.80;;;5.05;;
60308;SDS011;50313;52.894;6.492;2023-10-13T00:15:44;7.55;;;5.75;;
60308;SDS011;50313;52.894;6.492;2023-10-13T00:18:31;12.57;;;7.28;;
60308;SDS011;50313;52.894;6.492;2023-10-13T00:21:03;13.75;;;7.53;;
60308;SDS011;50313;52.894;6.492;2023-10-13T00:23:38;13.43;;;5.28;;
60308;SDS011;50313;52.894;6.492;2023-10-13T00:26:04;21.05;;;7.18;;
60308;SDS011;50313;52.894;6.492;2023-10-13T00:28:34;13.60;;;6.00;;
60308;SDS011;50313;52.894;6.492;2023-10-13T00:31:11;11.70;;;6.15;;
60308;SDS011;50313;52.894;6.492;2023-10-13T00:33:39;18.95;;;5.65;;
60308;SDS011;50313;52.894;6.492;2023-10-13T00:36:11;19.08;;;7.10;;
60308;SDS011;50313;52.894;6.492;2023-10-13T00:38:44;13.20;;;7.75;;
60308;SDS011;50313;52.894;6.492;2023-10-13T00:41:14;15.77;;;7.13;;
60308;SDS011;50313;52.894;6.492;2023-10-13T00:43:47;14.25;;;5.50;;
60308;SDS011;50313;52.894;6.492;2023-10-13T00:46:34;19.70;;;6.43;;
60308;SDS011;50313;52.894;6.492;2023-10-13T00:49:03;13.00;;;4.95;;
60308;SDS011;50313;52.894;6.492;2023-10-13T00:51:30;9.70;;;5.15;;
60308;SDS011;50313;52.894;6.492;2023-10-13T00:54:06;15.85;;;6.60;;
60308;SDS011;50313;52.894;6.492;2023-10-13T00:56:40;23.63;;;6.03;;
60308;SDS011;50313;52.894;6.492;2023-10-13T00:59:17;8.43;;;5.40;;
60308;SDS011;50313;52.894;6.492;2023-10-13T01:01:48;6.05;;;4.40;;
60308;SDS011;50313;52.894;6.492;2023-10-13T01:04:20;12.23;;;5.32;;
60308;SDS011;50313;52.894;6.492;2023-10-13T01:06:48;16.50;;;4.50;;
60308;SDS011;50313;52.894;6.492;2023-10-13T01:09:14;11.77;;;5.45;;
60308;SDS011;50313;52.894;6.492;2023-10-13T01:11:49;7.82;;;3.97;;
60308;SDS011;50313;52.894;6.492;2023-10-13T01:14:19;14.93;;;5.00;;
60308;SDS011;50313;52.894;6.492;2023-10-13T01:16:46;17.38;;;5.82;;
60308;SDS011;50313;52.894;6.492;2023-10-13T01:22:55;11.45;;;4.95;;
60308;SDS011;50313;52.894;6.492;2023-10-13T01:25:24;12.05;;;6.40;;
60308;SDS011;50313;52.894;6.492;2023-10-13T01:27:53;7.00;;;3.90;;
60308;SDS011;50313;52.894;6.492;2023-10-13T01:30:20;14.98;;;5.18;;
60308;SDS011;50313;52.894;6.492;2023-10-13T01:32:52;11.07;;;5.55;;
60308;SDS011;50313;52.894;6.492;2023-10-13T01:35:19;16.23;;;7.50;;
60308;SDS011;50313;52.894;6.492;2023-10-13T01:37:50;10.20;;;6.38;;
60308;SDS011;50313;52.894;6.492;2023-10-13T01:40:16;9.27;;;6.32;;
60308;SDS011;50313;52.894;6.492;2023-10-13T01:42:48;19.08;;;6.10;;
60308;SDS011;50313;52.894;6.492;2023-10-13T01:45:22;6.05;;;4.72;;
60308;SDS011;50313;52.894;6.492;2023-10-13T01:47:54;14.23;;;5.40;;
60308;SDS011;50313;52.894;6.492;2023-10-13T01:50:20;7.22;;;4.80;;
60308;SDS011;50313;52.894;6.492;2023-10-13T01:52:47;9.95;;;5.82;;
60308;SDS011;50313;52.894;6.492;2023-10-13T01:55:13;11.55;;;6.57;;
60308;SDS011;50313;52.894;6.492;2023-10-13T01:57:39;10.75;;;5.78;;
60308;SDS011;50313;52.894;6.492;2023-10-13T02:00:08;9.55;;;5.47;;
60308;SDS011;50313;52.894;6.492;2023-10-13T02:02:44;10.98;;;4.97;;
60308;SDS011;50313;52.894;6.492;2023-10-13T02:05:15;10.50;;;4.68;;
60308;SDS011;50313;52.894;6.492;2023-10-13T02:07:42;25.52;;;8.20;;
60308;SDS011;50313;52.894;6.492;2023-10-13T02:10:11;11.32;;;5.15;;
60308;SDS011;50313;52.894;6.492;2023-10-13T02:12:37;8.52;;;5.18;;
60308;SDS011;50313;52.894;6.492;2023-10-13T02:15:12;15.27;;;5.70;;
60308;SDS011;50313;52.894;6.492;2023-10-13T02:17:48;8.43;;;5.68;;
60308;SDS011;50313;52.894;6.492;2023-10-13T02:20:17;9.90;;;5.10;;
60308;SDS011;50313;52.894;6.492;2023-10-13T02:22:51;15.55;;;6.32;;
60308;SDS011;50313;52.894;6.492;2023-10-13T02:25:17;9.95;;;5.15;;
60308;SDS011;50313;52.894;6.492;2023-10-13T02:28:22;10.70;;;5.95;;
60308;SDS011;50313;52.894;6.492;2023-10-13T02:30:53;9.05;;;4.15;;
60308;SDS011;50313;52.894;6.492;2023-10-13T02:33:19;13.32;;;6.53;;
60308;SDS011;50313;52.894;6.492;2023-10-13T02:35:55;17.58;;;7.53;;
60308;SDS011;50313;52.894;6.492;2023-10-13T02:38:33;11.52;;;5.60;;
60308;SDS011;50313;52.894;6.492;2023-10-13T02:41:02;12.50;;;6.15;;
60308;SDS011;50313;52.894;6.492;2023-10-13T02:43:34;10.77;;;5.95;;
60308;SDS011;50313;52.894;6.492;2023-10-13T02:46:00;12.65;;;5.50;;
60308;SDS011;50313;52.894;6.492;2023-10-13T02:48:27;6.95;;;5.03;;
60308;SDS011;50313;52.894;6.492;2023-10-13T02:51:06;11.55;;;6.47;;
60308;SDS011;50313;52.894;6.492;2023-10-13T02:53:42;11.85;;;6.45;;
60308;SDS011;50313;52.894;6.492;2023-10-13T02:56:12;6.68;;;4.38;;
60308;SDS011;50313;52.894;6.492;2023-10-13T02:58:39;10.70;;;6.53;;
60308;SDS011;50313;52.894;6.492;2023-10-13T03:01:11;9.77;;;5.63;;
60308;SDS011;50313;52.894;6.492;2023-10-13T03:03:52;8.98;;;5.15;;
60308;SDS011;50313;52.894;6.492;2023-10-13T03:06:33;14.15;;;5.40;;
60308;SDS011;50313;52.894;6.492;2023-10-13T03:09:03;9.25;;;6.35;;
60308;SDS011;50313;52.894;6.492;2023-10-13T03:11:47;9.23;;;5.72;;
60308;SDS011;50313;52.894;6.492;2023-10-13T03:14:14;6.57;;;4.15;;
60308;SDS011;50313;52.894;6.492;2023-10-13T03:16:54;9.60;;;5.63;;
60308;SDS011;50313;52.894;6.492;2023-10-13T03:19:27;10.63;;;5.00;;
60308;SDS011;50313;52.894;6.492;2023-10-13T03:22:00;13.32;;;4.72;;
60308;SDS011;50313;52.894;6.492;2023-10-13T03:24:50;11.45;;;5.95;;
60308;SDS011;50313;52.894;6.492;2023-10-13T03:27:18;5.55;;;2.85;;
60308;SDS011;50313;52.894;6.492;2023-10-13T03:29:49;11.68;;;4.78;;
60308;SDS011;50313;52.894;6.492;2023-10-13T03:32:21;8.88;;;4.90;;
60308;SDS011;50313;52.894;6.492;2023-10-13T03:34:51;5.72;;;3.95;;
60308;SDS011;50313;52.894;6.492;2023-10-13T03:37:37;8.20;;;4.55;;
60308;SDS011;50313;52.894;6.492;2023-10-13T03:40:09;10.63;;;4.63;;
60308;SDS011;50313;52.894;6.492;2023-10-13T03:42:44;7.32;;;3.22;;
60308;SDS011;50313;52.894;6.492;2023-10-13T03:45:27;8.40;;;4.82;;
60308;SDS011;50313;52.894;6.492;2023-10-13T03:47:54;8.68;;;3.40;;
60308;SDS011;50313;52.894;6.492;2023-10-13T03:50:19;11.50;;;5.10;;
60308;SDS011;50313;52.894;6.492;2023-10-13T03:52:56;10.07;;;5.20;;
60308;SDS011;50313;52.894;6.492;2023-10-13T03:55:26;7.68;;;3.38;;
60308;SDS011;50313;52.894;6.492;2023-10-13T03:57:53;13.50;;;4.90;;
60308;SDS011;50313;52.894;6.492;2023-10-13T04:00:22;8.18;;;4.30;;
60308;SDS011;50313;52.894;6.492;2023-10-13T04:02:53;9.20;;;4.35;;
60308;SDS011;50313;52.894;6.492;2023-10-13T04:05:28;8.13;;;4.68;;
60308;SDS011;50313;52.894;6.492;2023-10-13T04:08:25;6.80;;;4.07;;
60308;SDS011;50313;52.894;6.492;2023-10-13T04:10:55;6.68;;;4.25;;
60308;SDS011;50313;52.894;6.492;2023-10-13T04:13:22;8.32;;;3.97;;
60308;SDS011;50313;52.894;6.492;2023-10-13T04:16:07;11.18;;;5.00;;
60308;SDS011;50313;52.894;6.492;2023-10-13T04:18:49;9.65;;;4.55;;
60308;SDS011;50313;52.894;6.492;2023-10-13T04:21:24;11.80;;;4.70;;
60308;SDS011;50313;52.894;6.492;2023-10-13T04:24:02;11.50;;;4.38;;
60308;SDS011;50313;52.894;6.492;2023-10-13T04:26:48;17.92;;;4.80;;
60308;SDS011;50313;52.894;6.492;2023-10-13T04:29:33;5.55;;;4.05;;
60308;SDS011;50313;52.894;6.492;2023-10-13T04:32:17;6.78;;;4.50;;
60308;SDS011;50313;52.894;6.492;2023-10-13T04:35:03;15.30;;;5.07;;
60308;SDS011;50313;52.894;6.492;2023-10-13T04:37:43;9.18;;;5.85;;
60308;SDS011;50313;52.894;6.492;2023-10-13T04:40:18;6.30;;;4.32;;
60308;SDS011;50313;52.894;6.492;2023-10-13T04:42:49;12.60;;;5.90;;
60308;SDS011;50313;52.894;6.492;2023-10-13T04:45:29;6.93;;;4.03;;
60308;SDS011;50313;52.894;6.492;2023-10-13T04:47:56;8.18;;;5.22;;
60308;SDS011;50313;52.894;6.492;2023-10-13T04:50:45;11.18;;;4.88;;
60308;SDS011;50313;52.894;6.492;2023-10-13T04:53:16;6.00;;;4.45;;
60308;SDS011;50313;52.894;6.492;2023-10-13T04:55:59;9.73;;;6.38;;
60308;SDS011;50313;52.894;6.492;2023-10-13T04:58:31;8.63;;;4.82;;
60308;SDS011;50313;52.894;6.492;2023-10-13T05:01:00;7.15;;;4.40;;
60308;SDS011;50313;52.894;6.492;2023-10-13T05:03:48;10.82;;;4.95;;
60308;SDS011;50313;52.894;6.492;2023-10-13T05:06:33;7.13;;;4.30;;
60308;SDS011;50313;52.894;6.492;2023-10-13T05:09:13;6.15;;;2.70;;
60308;SDS011;50313;52.894;6.492;2023-10-13T05:11:58;4.78;;;4.15;;
60308;SDS011;50313;52.894;6.492;2023-10-13T05:14:42;6.60;;;3.25;;
60308;SDS011;50313;52.894;6.492;2023-10-13T05:17:27;4.15;;;2.85;;
60308;SDS011;50313;52.894;6.492;2023-10-13T05:20:11;5.25;;;3.80;;
60308;SDS011;50313;52.894;6.492;2023-10-13T05:23:09;9.13;;;3.10;;
60308;SDS011;50313;52.894;6.492;2023-10-13T05:25:54;4.45;;;2.25;;
60308;SDS011;50313;52.894;6.492;2023-10-13T05:28:38;5.25;;;3.38;;
60308;SDS011;50313;52.894;6.492;2023-10-13T05:31:22;5.13;;;2.35;;
60308;SDS011;50313;52.894;6.492;2023-10-13T05:34:06;4.82;;;3.10;;
60308;SDS011;50313;52.894;6.492;2023-10-13T05:36:51;3.35;;;3.05;;
60308;SDS011;50313;52.894;6.492;2023-10-13T05:39:35;5.00;;;2.63;;
60308;SDS011;50313;52.894;6.492;2023-10-13T05:42:20;2.08;;;1.90;;
60308;SDS011;50313;52.894;6.492;2023-10-13T05:45:04;3.70;;;2.15;;
60308;SDS011;50313;52.894;6.492;2023-10-13T05:47:43;2.90;;;1.98;;
60308;SDS011;50313;52.894;6.492;2023-10-13T05:50:12;5.30;;;2.17;;
60308;SDS011;50313;52.894;6.492;2023-10-13T05:52:58;4.80;;;2.05;;
60308;SDS011;50313;52.894;6.492;2023-10-13T05:55:28;3.83;;;1.92;;
60308;SDS011;50313;52.894;6.492;2023-10-13T05:58:13;4.47;;;1.92;;
60308;SDS011;50313;52.894;6.492;2023-10-13T06:00:57;3.65;;;1.95;;
60308;SDS011;50313;52.894;6.492;2023-10-13T06:03:42;3.35;;;1.63;;
60308;SDS011;50313;52.894;6.492;2023-10-13T06:06:27;2.53;;;1.67;;
60308;SDS011;50313;52.894;6.492;2023-10-13T06:09:11;3.05;;;1.92;;
60308;SDS011;50313;52.894;6.492;2023-10-13T06:11:56;2.30;;;1.90;;
60308;SDS011;50313;52.894;6.492;2023-10-13T06:14:40;2.70;;;1.65;;
60308;SDS011;50313;52.894;6.492;2023-10-13T06:17:28;2.33;;;1.65;;
60308;SDS011;50313;52.894;6.492;2023-10-13T06:20:13;3.25;;;1.70;;
60308;SDS011;50313;52.894;6.492;2023-10-13T06:22:57;2.58;;;1.38;;
60308;SDS011;50313;52.894;6.492;2023-10-13T06:25:41;1.40;;;1.23;;
60308;SDS011;50313;52.894;6.492;2023-10-13T06:28:26;0.73;;;0.73;;
60308;SDS011;50313;52.894;6.492;2023-10-13T06:31:07;1.25;;;1.15;;
60308;SDS011;50313;52.894;6.492;2023-10-13T06:33:39;6.63;;;1.90;;
60308;SDS011;50313;52.894;6.492;2023-10-13T06:36:10;1.80;;;1.42;;
60308;SDS011;50313;52.894;6.492;2023-10-13T06:38:36;2.35;;;1.20;;
60308;SDS011;50313;52.894;6.492;2023-10-13T06:41:06;1.55;;;1.00;;
60308;SDS011;50313;52.894;6.492;2023-10-13T06:43:33;2.17;;;1.98;;
60308;SDS011;50313;52.894;6.492;2023-10-13T06:46:05;2.47;;;1.42;;
60308;SDS011;50313;52.894;6.492;2023-10-13T06:48:32;1.50;;;1.40;;
60308;SDS011;50313;52.894;6.492;2023-10-13T06:51:02;1.50;;;0.93;;
60308;SDS011;50313;52.894;6.492;2023-10-13T06:53:30;2.72;;;1.70;;
60308;SDS011;50313;52.894;6.492;2023-10-13T06:56:02;1.23;;;0.73;;
60308;SDS011;50313;52.894;6.492;2023-10-13T06:58:31;8.90;;;0.90;;
60308;SDS011;50313;52.894;6.492;2023-10-13T07:00:57;1.65;;;1.23;;
60308;SDS011;50313;52.894;6.492;2023-10-13T07:03:24;1.17;;;1.08;;
60308;SDS011;50313;52.894;6.492;2023-10-13T07:05:50;1.25;;;1.15;;
60308;SDS011;50313;52.894;6.492;2023-10-13T07:08:17;2.88;;;1.38;;
60308;SDS011;50313;52.894;6.492;2023-10-13T07:10:48;2.83;;;2.00;;
60308;SDS011;50313;52.894;6.492;2023-10-13T07:13:30;1.63;;;1.13;;
60308;SDS011;50313;52.894;6.492;2023-10-13T07:15:56;2.55;;;1.55;;
60308;SDS011;50313;52.894;6.492;2023-10-13T07:18:37;4.35;;;1.15;;
60308;SDS011;50313;52.894;6.492;2023-10-13T07:21:17;3.97;;;1.00;;
60308;SDS011;50313;52.894;6.492;2023-10-13T07:23:49;5.15;;;2.15;;
60308;SDS011;50313;52.894;6.492;2023-10-13T07:26:26;4.90;;;1.63;;
60308;SDS011;50313;52.894;6.492;2023-10-13T07:28:54;2.78;;;1.25;;
60308;SDS011;50313;52.894;6.492;2023-10-13T07:31:20;1.98;;;1.40;;
60308;SDS011;50313;52.894;6.492;2023-10-13T07:33:46;9.80;;;1.55;;
60308;SDS011;50313;52.894;6.492;2023-10-13T07:36:12;3.65;;;1.42;;
60308;SDS011;50313;52.894;6.492;2023-10-13T07:38:43;2.50;;;1.25;;
60308;SDS011;50313;52.894;6.492;2023-10-13T07:41:14;0.75;;;0.75;;
60308;SDS011;50313;52.894;6.492;2023-10-13T07:43:41;5.88;;;1.33;;
60308;SDS011;50313;52.894;6.492;2023-10-13T07:46:08;5.82;;;1.73;;
60308;SDS011;50313;52.894;6.492;2023-10-13T07:48:38;6.72;;;1.63;;
60308;SDS011;50313;52.894;6.492;2023-10-13T07:51:10;4.70;;;1.85;;
60308;SDS011;50313;52.894;6.492;2023-10-13T07:53:42;6.30;;;2.78;;
60308;SDS011;50313;52.894;6.492;2023-10-13T07:56:11;2.95;;;1.52;;
60308;SDS011;50313;52.894;6.492;2023-10-13T07:58:37;8.02;;;1.35;;
60308;SDS011;50313;52.894;6.492;2023-10-13T08:01:18;4.80;;;2.03;;
60308;SDS011;50313;52.894;6.492;2023-10-13T08:03:44;3.72;;;1.10;;
60308;SDS011;50313;52.894;6.492;2023-10-13T08:06:13;2.70;;;1.15;;
60308;SDS011;50313;52.894;6.492;2023-10-13T08:08:43;3.60;;;2.35;;
60308;SDS011;50313;52.894;6.492;2023-10-13T08:11:12;2.17;;;1.38;;
60308;SDS011;50313;52.894;6.492;2023-10-13T08:13:55;9.60;;;1.77;;
60308;SDS011;50313;52.894;6.492;2023-10-13T08:16:28;3.92;;;1.90;;
60308;SDS011;50313;52.894;6.492;2023-10-13T08:19:16;8.38;;;2.00;;
60308;SDS011;50313;52.894;6.492;2023-10-13T08:21:44;8.73;;;2.00;;
60308;SDS011;50313;52.894;6.492;2023-10-13T08:26:50;1.70;;;1.35;;
60308;SDS011;50313;52.894;6.492;2023-10-13T08:29:23;2.17;;;1.37;;
60308;SDS011;50313;52.894;6.492;2023-10-13T08:31:55;2.88;;;1.65;;
60308;SDS011;50313;52.894;6.492;2023-10-13T08:34:30;5.07;;;1.67;;
60308;SDS011;50313;52.894;6.492;2023-10-13T08:37:07;8.70;;;2.10;;
60308;SDS011;50313;52.894;6.492;2023-10-13T08:39:56;2.47;;;1.42;;
60308;SDS011;50313;52.894;6.492;2023-10-13T08:42:33;5.30;;;2.67;;
60308;SDS011;50313;52.894;6.492;2023-10-13T08:50:33;3.65;;;1.77;;
60308;SDS011;50313;52.894;6.492;2023-10-13T08:56:00;16.38;;;1.73;;
60308;SDS011;50313;52.894;6.492;2023-10-13T08:58:29;13.40;;;2.25;;
60308;SDS011;50313;52.894;6.492;2023-10-13T09:01:15;5.63;;;1.85;;
60308;SDS011;50313;52.894;6.492;2023-10-13T09:03:59;12.43;;;2.08;;
60308;SDS011;50313;52.894;6.492;2023-10-13T09:06:44;7.68;;;2.35;;
60308;SDS011;50313;52.894;6.492;2023-10-13T09:09:15;13.02;;;1.83;;
60308;SDS011;50313;52.894;6.492;2023-10-13T09:11:59;3.75;;;2.70;;
60308;SDS011;50313;52.894;6.492;2023-10-13T09:14:38;7.15;;;2.08;;
60308;SDS011;50313;52.894;6.492;2023-10-13T09:17:12;5.70;;;3.00;;
60308;SDS011;50313;52.894;6.492;2023-10-13T09:19:45;9.00;;;1.90;;
60308;SDS011;50313;52.894;6.492;2023-10-13T09:22:23;8.02;;;2.30;;
60308;SDS011;50313;52.894;6.492;2023-10-13T09:25:00;7.10;;;2.67;;
60308;SDS011;50313;52.894;6.492;2023-10-13T09:27:29;4.97;;;2.75;;
60308;SDS011;50313;52.894;6.492;2023-10-13T09:29:57;8.02;;;3.03;;
60308;SDS011;50313;52.894;6.492;2023-10-13T09:32:43;6.78;;;2.42;;
60308;SDS011;50313;52.894;6.492;2023-10-13T09:35:17;6.22;;;2.05;;
60308;SDS011;50313;52.894;6.492;2023-10-13T09:37:46;6.43;;;2.28;;
60308;SDS011;50313;52.894;6.492;2023-10-13T09:40:14;8.38;;;2.60;;
60308;SDS011;50313;52.894;6.492;2023-10-13T09:42:52;2.65;;;1.30;;
60308;SDS011;50313;52.894;6.492;2023-10-13T09:45:23;10.60;;;2.00;;
60308;SDS011;50313;52.894;6.492;2023-10-13T09:47:53;7.40;;;2.53;;
60308;SDS011;50313;52.894;6.492;2023-10-13T09:50:31;8.77;;;2.92;;
60308;SDS011;50313;52.894;6.492;2023-10-13T09:53:03;4.53;;;2.33;;
60308;SDS011;50313;52.894;6.492;2023-10-13T09:55:36;5.00;;;2.15;;
60308;SDS011;50313;52.894;6.492;2023-10-13T09:58:09;6.30;;;3.28;;
60308;SDS011;50313;52.894;6.492;2023-10-13T10:00:47;9.27;;;2.50;;
60308;SDS011;50313;52.894;6.492;2023-10-13T10:03:47;4.47;;;2.17;;
60308;SDS011;50313;52.894;6.492;2023-10-13T10:06:36;6.40;;;2.33;;
60308;SDS011;50313;52.894;6.492;2023-10-13T10:09:10;8.02;;;2.13;;
60308;SDS011;50313;52.894;6.492;2023-10-13T10:17:23;7.32;;;3.13;;
60308;SDS011;50313;52.894;6.492;2023-10-13T10:19:54;9.35;;;2.70;;
60308;SDS011;50313;52.894;6.492;2023-10-13T10:22:40;4.35;;;2.03;;
60308;SDS011;50313;52.894;6.492;2023-10-13T10:25:14;3.42;;;1.80;;
60308;SDS011;50313;52.894;6.492;2023-10-13T10:27:58;7.00;;;1.95;;
60308;SDS011;50313;52.894;6.492;2023-10-13T10:32:57;8.63;;;1.90;;
60308;SDS011;50313;52.894;6.492;2023-10-13T10:35:24;3.97;;;1.73;;
60308;SDS011;50313;52.894;6.492;2023-10-13T10:40:56;3.13;;;1.92;;
60308;SDS011;50313;52.894;6.492;2023-10-13T10:46:08;9.05;;;2.83;;
60308;SDS011;50313;52.894;6.492;2023-10-13T10:48:36;4.60;;;2.00;;
60308;SDS011;50313;52.894;6.492;2023-10-13T10:51:08;5.72;;;2.28;;
60308;SDS011;50313;52.894;6.492;2023-10-13T10:53:50;7.72;;;2.65;;
60308;SDS011;50313;52.894;6.492;2023-10-13T10:56:25;9.10;;;2.88;;
60308;SDS011;50313;52.894;6.492;2023-10-13T10:59:02;5.05;;;2.70;;
60308;SDS011;50313;52.894;6.492;2023-10-13T11:01:31;5.43;;;1.90;;
60308;SDS011;50313;52.894;6.492;2023-10-13T11:04:07;13.38;;;2.45;;
60308;SDS011;50313;52.894;6.492;2023-10-13T11:06:49;12.15;;;2.15;;
60308;SDS011;50313;52.894;6.492;2023-10-13T11:09:32;3.25;;;2.03;;
60308;SDS011;50313;52.894;6.492;2023-10-13T11:12:14;11.52;;;2.60;;
60308;SDS011;50313;52.894;6.492;2023-10-13T11:14:44;11.20;;;2.83;;
60308;SDS011;50313;52.894;6.492;2023-10-13T11:17:20;5.50;;;2.70;;
60308;SDS011;50313;52.894;6.492;2023-10-13T11:19:51;6.53;;;2.00;;
60308;SDS011;50313;52.894;6.492;2023-10-13T11:22:18;5.72;;;2.33;;
60308;SDS011;50313;52.894;6.492;2023-10-13T11:25:19;6.68;;;2.53;;
60308;SDS011;50313;52.894;6.492;2023-10-13T11:27:55;17.50;;;2.17;;
60308;SDS011;50313;52.894;6.492;2023-10-13T11:30:23;6.30;;;2.33;;
60308;SDS011;50313;52.894;6.492;2023-10-13T11:33:00;10.55;;;2.13;;
60308;SDS011;50313;52.894;6.492;2023-10-13T11:35:31;10.27;;;2.17;;
60308;SDS011;50313;52.894;6.492;2023-10-13T11:38:16;9.82;;;2.22;;
60308;SDS011;50313;52.894;6.492;2023-10-13T11:43:40;10.57;;;2.90;;
60308;SDS011;50313;52.894;6.492;2023-10-13T11:46:09;7.07;;;2.33;;
60308;SDS011;50313;52.894;6.492;2023-10-13T11:48:35;8.70;;;2.63;;
60308;SDS011;50313;52.894;6.492;2023-10-13T11:51:05;12.07;;;2.72;;
60308;SDS011;50313;52.894;6.492;2023-10-13T11:53:35;9.40;;;3.08;;
60308;SDS011;50313;52.894;6.492;2023-10-13T11:56:01;11.40;;;3.22;;
60308;SDS011;50313;52.894;6.492;2023-10-13T11:58:37;3.72;;;2.45;;
60308;SDS011;50313;52.894;6.492;2023-10-13T12:01:04;6.05;;;2.50;;
60308;SDS011;50313;52.894;6.492;2023-10-13T12:03:53;4.82;;;2.60;;
60308;SDS011;50313;52.894;6.492;2023-10-13T12:06:37;11.80;;;2.95;;
60308;SDS011;50313;52.894;6.492;2023-10-13T12:09:03;14.50;;;3.40;;
60308;SDS011;50313;52.894;6.492;2023-10-13T12:11:45;13.63;;;2.83;;
60308;SDS011;50313;52.894;6.492;2023-10-13T12:14:12;7.28;;;3.28;;
60308;SDS011;50313;52.894;6.492;2023-10-13T12:16:55;9.10;;;2.28;;
60308;SDS011;50313;52.894;6.492;2023-10-13T12:19:24;6.32;;;2.90;;
60308;SDS011;50313;52.894;6.492;2023-10-13T12:21:52;12.10;;;3.22;;
60308;SDS011;50313;52.894;6.492;2023-10-13T12:24:27;9.43;;;2.80;;
60308;SDS011;50313;52.894;6.492;2023-10-13T12:27:06;10.75;;;2.90;;
60308;SDS011;50313;52.894;6.492;2023-10-13T12:29:45;7.93;;;3.03;;
60308;SDS011;50313;52.894;6.492;2023-10-13T12:32:11;5.30;;;2.83;;
60308;SDS011;50313;52.894;6.492;2023-10-13T12:34:38;6.90;;;2.88;;
60308;SDS011;50313;52.894;6.492;2023-10-13T12:37:23;9.18;;;2.80;;
60308;SDS011;50313;52.894;6.492;2023-10-13T12:40:04;8.70;;;2.90;;
60308;SDS011;50313;52.894;6.492;2023-10-13T12:42:50;10.60;;;3.28;;
60308;SDS011;50313;52.894;6.492;2023-10-13T12:45:38;10.77;;;3.28;;
60308;SDS011;50313;52.894;6.492;2023-10-13T12:48:23;6.55;;;2.88;;
60308;SDS011;50313;52.894;6.492;2023-10-13T12:51:07;16.85;;;3.03;;
60308;SDS011;50313;52.894;6.492;2023-10-13T12:53:51;7.95;;;2.63;;
60308;SDS011;50313;52.894;6.492;2023-10-13T12:56:19;9.43;;;3.10;;
60308;SDS011;50313;52.894;6.492;2023-10-13T13:01:26;5.63;;;2.67;;
60308;SDS011;50313;52.894;6.492;2023-10-13T13:03:59;15.65;;;3.80;;
60308;SDS011;50313;52.894;6.492;2023-10-13T13:06:28;10.88;;;3.28;;
60308;SDS011;50313;52.894;6.492;2023-10-13T13:11:29;7.85;;;3.17;;
60308;SDS011;50313;52.894;6.492;2023-10-13T13:16:20;10.65;;;3.15;;
60308;SDS011;50313;52.894;6.492;2023-10-13T13:18:49;8.25;;;2.85;;
60308;SDS011;50313;52.894;6.492;2023-10-13T13:21:16;10.80;;;3.33;;
60308;SDS011;50313;52.894;6.492;2023-10-13T13:23:52;8.60;;;3.05;;
60308;SDS011;50313;52.894;6.492;2023-10-13T13:26:24;8.80;;;2.75;;
60308;SDS011;50313;52.894;6.492;2023-10-13T13:28:50;5.78;;;3.08;;
60308;SDS011;50313;52.894;6.492;2023-10-13T13:31:18;8.88;;;3.58;;
60308;SDS011;50313;52.894;6.492;2023-10-13T13:33:50;11.13;;;3.28;;
60308;SDS011;50313;52.894;6.492;2023-10-13T13:36:16;10.40;;;2.75;;
60308;SDS011;50313;52.894;6.492;2023-10-13T13:38:42;13.02;;;3.97;;
60308;SDS011;50313;52.894;6.492;2023-10-13T13:41:15;6.35;;;2.50;;
60308;SDS011;50313;52.894;6.492;2023-10-13T13:43:48;9.20;;;3.95;;
60308;SDS011;50313;52.894;6.492;2023-10-13T13:46:17;6.97;;;3.60;;
60308;SDS011;50313;52.894;6.492;2023-10-13T13:48:50;8.90;;;4.13;;
60308;SDS011;50313;52.894;6.492;2023-10-13T13:51:22;12.43;;;3.22;;
60308;SDS011;50313;52.894;6.492;2023-10-13T13:53:53;13.82;;;3.55;;
60308;SDS011;50313;52.894;6.492;2023-10-13T13:56:21;9.20;;;3.17;;
60308;SDS011;50313;52.894;6.492;2023-10-13T13:58:50;10.18;;;3.58;;
60308;SDS011;50313;52.894;6.492;2023-10-13T14:01:18;10.07;;;2.92;;
60308;SDS011;50313;52.894;6.492;2023-10-13T14:03:50;9.05;;;4.20;;
60308;SDS011;50313;52.894;6.492;2023-10-13T14:06:17;15.25;;;3.55;;
60308;SDS011;50313;52.894;6.492;2023-10-13T14:08:57;12.65;;;3.42;;
60308;SDS011;50313;52.894;6.492;2023-10-13T14:11:32;10.88;;;4.07;;
60308;SDS011;50313;52.894;6.492;2023-10-13T14:14:10;9.20;;;3.13;;
60308;SDS011;50313;52.894;6.492;2023-10-13T14:16:40;10.35;;;3.42;;
60308;SDS011;50313;52.894;6.492;2023-10-13T14:19:13;5.78;;;3.22;;
60308;SDS011;50313;52.894;6.492;2023-10-13T14:21:59;14.98;;;3.75;;
60308;SDS011;50313;52.894;6.492;2023-10-13T14:24:32;11.25;;;3.65;;
60308;SDS011;50313;52.894;6.492;2023-10-13T14:27:02;14.55;;;3.38;;
60308;SDS011;50313;52.894;6.492;2023-10-13T14:29:42;11.57;;;3.30;;
60308;SDS011;50313;52.894;6.492;2023-10-13T14:32:12;8.82;;;2.60;;
60308;SDS011;50313;52.894;6.492;2023-10-13T14:34:40;10.57;;;4.60;;
60308;SDS011;50313;52.894;6.492;2023-10-13T14:37:07;11.38;;;3.45;;
60308;SDS011;50313;52.894;6.492;2023-10-13T14:39:33;13.65;;;3.45;;
60308;SDS011;50313;52.894;6.492;2023-10-13T14:42:01;8.52;;;3.45;;
60308;SDS011;50313;52.894;6.492;2023-10-13T14:44:28;12.68;;;3.78;;
60308;SDS011;50313;52.894;6.492;2023-10-13T14:46:53;9.98;;;3.20;;
60308;SDS011;50313;52.894;6.492;2023-10-13T14:49:22;6.75;;;3.28;;
60308;SDS011;50313;52.894;6.492;2023-10-13T14:51:47;15.85;;;3.85;;
60308;SDS011;50313;52.894;6.492;2023-10-13T14:54:15;12.45;;;3.00;;
60308;SDS011;50313;52.894;6.492;2023-10-13T14:56:41;12.93;;;3.80;;
60308;SDS011;50313;52.894;6.492;2023-10-13T14:59:07;13.40;;;4.50;;
60308;SDS011;50313;52.894;6.492;2023-10-13T15:01:41;10.68;;;4.00;;
60308;SDS011;50313;52.894;6.492;2023-10-13T15:04:08;8.15;;;3.08;;
60308;SDS011;50313;52.894;6.492;2023-10-13T15:06:34;10.90;;;3.90;;
60308;SDS011;50313;52.894;6.492;2023-10-13T15:09:00;8.10;;;3.65;;
60308;SDS011;50313;52.894;6.492;2023-10-13T15:11:29;5.32;;;2.58;;
60308;SDS011;50313;52.894;6.492;2023-10-13T15:14:05;8.10;;;3.55;;
60308;SDS011;50313;52.894;6.492;2023-10-13T15:16:34;10.95;;;3.45;;
60308;SDS011;50313;52.894;6.492;2023-10-13T15:19:00;7.40;;;3.75;;
60308;SDS011;50313;52.894;6.492;2023-10-13T15:21:28;8.13;;;4.25;;
60308;SDS011;50313;52.894;6.492;2023-10-13T15:24:03;11.05;;;2.80;;
60308;SDS011;50313;52.894;6.492;2023-10-13T15:26:42;8.52;;;3.33;;
60308;SDS011;50313;52.894;6.492;2023-10-13T15:29:13;17.17;;;5.10;;
60308;SDS011;50313;52.894;6.492;2023-10-13T15:31:45;12.82;;;4.03;;
60308;SDS011;50313;52.894;6.492;2023-10-13T15:34:23;7.72;;;4.45;;
60308;SDS011;50313;52.894;6.492;2023-10-13T15:36:51;11.18;;;4.68;;
60308;SDS011;50313;52.894;6.492;2023-10-13T15:39:19;9.45;;;3.83;;
60308;SDS011;50313;52.894;6.492;2023-10-13T15:41:49;7.35;;;3.65;;
60308;SDS011;50313;52.894;6.492;2023-10-13T15:44:20;17.05;;;4.82;;
60308;SDS011;50313;52.894;6.492;2023-10-13T15:46:52;9.85;;;2.92;;
60308;SDS011;50313;52.894;6.492;2023-10-13T15:49:18;12.32;;;3.65;;
60308;SDS011;50313;52.894;6.492;2023-10-13T15:51:44;7.40;;;3.33;;
60308;SDS011;50313;52.894;6.492;2023-10-13T15:54:10;9.65;;;3.95;;
60308;SDS011;50313;52.894;6.492;2023-10-13T15:56:43;9.38;;;3.42;;
60308;SDS011;50313;52.894;6.492;2023-10-13T15:59:10;12.10;;;3.58;;
60308;SDS011;50313;52.894;6.492;2023-10-13T16:01:36;6.50;;;3.17;;